Welcome to Des Moines Iowa Weather. I am an independent private personal weather station on the Northwest Side of Des Moines, Iowa. Just East of Windsor Heights and just West of Glendale . This site is also mobile friendly.

There are no active watches, warnings or advisories


Visit our other weather sites:

Historical Data

Weather Station Setup



Weather Underground History page Text

Daily Summary for February 8, 2018 Units:  Metric    English   Both
« Previous Day
Next Day »
Daily Weekly Monthly Yearly Custom
  High: Low: Average:
Temperature: -4.3 °C -10.4 °C -7.2 °C
Dew Point: -7.2 °C -12.8 °C -9.3 °C
Humidity: 89 % 73 % 85 %
Wind Speed: 6.4 km/h 0 km/h 2.1 km/h
Wind Gust: 14.5 km/h - -
Wind:- - ENE
Pressure: 1032.1 hPa 1021.9 hPa -
Precipitation: 0.25 mm    
Historical Graphs
 
 
Tabular Data for February 8, 2018
Time Temperature Dew Point Pressure Wind Wind Speed Wind Gust Humidity Rainfall Rate (Hourly)
00:02 -10.4 °C -12.8 °C 1032.1 hPa Calm   1.6 km/h 84 % 0 mm
00:17 -10.3 °C -12.2 °C 1031.7 hPa Calm   1.6 km/h 85 % 0 mm
00:32 -10.3 °C -12.2 °C 1031.4 hPa Calm   3.2 km/h 85 % 0 mm
00:47 -10.2 °C -12.2 °C 1030.7 hPa Calm   4.8 km/h 86 % 0 mm
01:02 -10.2 °C -12.2 °C 1030.7 hPa NNE 1.6 km/h 4.8 km/h 86 % 0 mm
01:17 -10.1 °C -11.7 °C 1030.7 hPa NNE 3.2 km/h 4.8 km/h 87 % 0 mm
01:33 -9.9 °C -11.7 °C 1030.7 hPa NNE 1.6 km/h 3.2 km/h 87 % 0 mm
01:48 -9.8 °C -11.7 °C 1030.7 hPa NNE 3.2 km/h 4.8 km/h 87 % 0 mm
02:03 -9.8 °C -11.7 °C 1030.7 hPa Calm   4.8 km/h 87 % 0 mm
02:18 -9.7 °C -11.7 °C 1030.7 hPa Calm   3.2 km/h 87 % 0 mm
02:33 -9.7 °C -11.7 °C 1030.7 hPa Calm   3.2 km/h 87 % 0 mm
02:53 -9.6 °C -11.1 °C 1030.4 hPa North 1.6 km/h 4.8 km/h 87 % 0 mm
03:03 -9.5 °C -11.1 °C 1030.4 hPa Calm   4.8 km/h 87 % 0 mm
03:18 -9.4 °C -11.1 °C 1030 hPa Calm   3.2 km/h 87 % 0 mm
03:33 -9.3 °C -11.1 °C 1029.7 hPa North 4.8 km/h 4.8 km/h 87 % 0 mm
03:48 -9.2 °C -11.1 °C 1030.4 hPa Calm   1.6 km/h 87 % 0 mm
04:03 -9.2 °C -11.1 °C 1030 hPa Calm     87 % 0 mm
04:18 -9.1 °C -11.1 °C 1029.7 hPa Calm   3.2 km/h 87 % 0 mm
04:33 -9 °C -10.6 °C 1029.7 hPa Calm   6.4 km/h 87 % 0 mm
04:48 -8.9 °C -10.6 °C 1029.7 hPa Calm   1.6 km/h 87 % 0 mm
05:03 -8.9 °C -10.6 °C 1030 hPa Calm   3.2 km/h 87 % 0 mm
05:18 -8.8 °C -10.6 °C 1030 hPa Calm   1.6 km/h 87 % 0 mm
05:33 -8.7 °C -10.6 °C 1030.4 hPa Calm   3.2 km/h 87 % 0 mm
05:48 -8.7 °C -10.6 °C 1030.4 hPa Calm   3.2 km/h 87 % 0 mm
06:03 -8.7 °C -10.6 °C 1030 hPa Calm   3.2 km/h 87 % 0 mm
06:18 -8.6 °C -10.6 °C 1029.7 hPa Calm     87 % 0 mm
06:33 -8.6 °C -10.6 °C 1030.4 hPa Calm   3.2 km/h 87 % 0 mm
06:48 -8.6 °C -10.6 °C 1030.4 hPa NNE 1.6 km/h 3.2 km/h 87 % 0 mm
07:03 -8.7 °C -10.6 °C 1030.4 hPa Calm   3.2 km/h 87 % 0 mm
07:18 -8.7 °C -10.6 °C 1030.4 hPa Calm   3.2 km/h 87 % 0 mm
07:33 -8.8 °C -10.6 °C 1030.4 hPa Calm   3.2 km/h 87 % 0 mm
07:48 -8.9 °C -10.6 °C 1030.4 hPa Calm   3.2 km/h 87 % 0 mm
08:03 -8.8 °C -10.6 °C 1030.4 hPa Calm   3.2 km/h 87 % 0 mm
08:18 -8.7 °C -10.6 °C 1030.4 hPa Calm   4.8 km/h 87 % 0 mm
08:33 -8.5 °C -10 °C 1030.4 hPa Calm   3.2 km/h 87 % 0 mm
08:48 -8.1 °C -10 °C 1030.4 hPa Calm   4.8 km/h 87 % 0 mm
09:03 -7.6 °C -9.4 °C 1030.4 hPa Calm   4.8 km/h 87 % 0 mm
09:18 -7.1 °C -8.9 °C 1030.4 hPa NE 1.6 km/h 4.8 km/h 86 % 0 mm
09:33 -6.8 °C -8.9 °C 1030 hPa Calm   4.8 km/h 85 % 0 mm
09:48 -6.6 °C -8.9 °C 1029.7 hPa NE 3.2 km/h 4.8 km/h 83 % 0 mm
10:04 -6 °C -8.3 °C 1030 hPa ENE 3.2 km/h 6.4 km/h 82 % 0 mm
10:19 -5.1 °C -7.8 °C 1030.4 hPa Calm   3.2 km/h 81 % 0 mm
10:34 -4.9 °C -8.3 °C 1030.7 hPa ENE 4.8 km/h 4.8 km/h 76 % 0 mm
10:49 -4.8 °C -8.3 °C 1030.4 hPa ENE 1.6 km/h 4.8 km/h 76 % 0.25 mm
11:04 -4.3 °C -8.3 °C 1030.4 hPa Calm   6.4 km/h 75 % 0.25 mm
11:19 -4.5 °C -8.3 °C 1030 hPa ENE 6.4 km/h 6.4 km/h 74 % 0.25 mm
11:34 -4.4 °C -8.3 °C 1029.7 hPa NE 1.6 km/h 8 km/h 73 % 0.25 mm
11:49 -4.5 °C -8.9 °C 1029.3 hPa NNE 3.2 km/h 8 km/h 73 % 0 mm
12:04 -4.4 °C -8.3 °C 1028.7 hPa ESE 3.2 km/h 9.7 km/h 74 % 0 mm
12:19 -4.9 °C -8.9 °C 1028.3 hPa Calm   9.7 km/h 75 % 0 mm
12:34 -5.2 °C -8.3 °C 1028.7 hPa ENE 1.6 km/h 8 km/h 78 % 0 mm
12:49 -5.2 °C -8.3 °C 1028.7 hPa ENE 1.6 km/h 4.8 km/h 79 % 0 mm
13:04 -5.3 °C -8.3 °C 1028.7 hPa ENE 3.2 km/h 6.4 km/h 80 % 0 mm
13:19 -5.3 °C -8.3 °C 1028.3 hPa Calm   3.2 km/h 81 % 0 mm
13:34 -5.4 °C -7.8 °C 1027.7 hPa ENE 6.4 km/h 6.4 km/h 82 % 0 mm
13:49 -5.4 °C -7.8 °C 1027.3 hPa ENE 3.2 km/h 6.4 km/h 84 % 0 mm
14:04 -5.4 °C -7.8 °C 1027 hPa East 1.6 km/h 4.8 km/h 85 % 0 mm
14:19 -5.4 °C -7.2 °C 1026.6 hPa ENE 3.2 km/h 8 km/h 85 % 0 mm
14:34 -5.2 °C -7.2 °C 1026.3 hPa ENE 4.8 km/h 6.4 km/h 85 % 0 mm
14:49 -4.9 °C -7.2 °C 1026.6 hPa ENE 6.4 km/h 8 km/h 83 % 0 mm
15:04 -4.9 °C -7.2 °C 1026.3 hPa ENE 4.8 km/h 8 km/h 83 % 0 mm
15:26 -5.1 °C -7.2 °C 1026 hPa East 3.2 km/h 6.4 km/h 83 % 0 mm
15:34 -5.1 °C -7.2 °C 1025.6 hPa ENE 4.8 km/h 6.4 km/h 84 % 0 mm
15:49 -5.2 °C -7.2 °C 1025.6 hPa Calm   8 km/h 84 % 0 mm
16:04 -5.3 °C -7.8 °C 1026 hPa East 1.6 km/h 9.7 km/h 84 % 0 mm
16:19 -5.3 °C -7.8 °C 1026 hPa ENE 1.6 km/h 4.8 km/h 84 % 0 mm
16:34 -5.5 °C -7.8 °C 1026 hPa ENE 1.6 km/h 6.4 km/h 84 % 0 mm
16:49 -5.7 °C -7.8 °C 1025.6 hPa ENE 6.4 km/h 6.4 km/h 84 % 0 mm
17:04 -5.8 °C -7.8 °C 1025.6 hPa ENE 6.4 km/h 12.9 km/h 85 % 0 mm
17:19 -6 °C -7.8 °C 1025.6 hPa ENE 3.2 km/h 6.4 km/h 86 % 0 mm
17:34 -6.2 °C -8.3 °C 1025.6 hPa NE 6.4 km/h 11.3 km/h 86 % 0 mm
17:49 -6.3 °C -8.3 °C 1025.3 hPa NE 4.8 km/h 6.4 km/h 87 % 0 mm
18:04 -6.3 °C -7.8 °C 1024.9 hPa ENE 1.6 km/h 8 km/h 88 % 0 mm
18:34 -6.4 °C -8.3 °C 1024.6 hPa ENE 1.6 km/h 12.9 km/h 88 % 0 mm
18:49 -6.4 °C -8.3 °C 1024.6 hPa ENE 4.8 km/h 11.3 km/h 88 % 0 mm
19:04 -6.5 °C -7.8 °C 1024.3 hPa ESE 3.2 km/h 6.4 km/h 89 % 0 mm
19:19 -6.4 °C -7.8 °C 1024.3 hPa ESE 4.8 km/h 9.7 km/h 89 % 0 mm
19:34 -6.5 °C -7.8 °C 1023.9 hPa NE 3.2 km/h 9.7 km/h 89 % 0 mm
19:49 -6.5 °C -7.8 °C 1023.9 hPa NE 3.2 km/h 4.8 km/h 89 % 0 mm
20:04 -6.7 °C -8.3 °C 1023.6 hPa NE 4.8 km/h 6.4 km/h 89 % 0 mm
20:20 -6.8 °C -8.3 °C 1023.2 hPa Calm   9.7 km/h 89 % 0 mm
20:35 -6.8 °C -8.3 °C 1023.2 hPa ENE 3.2 km/h 11.3 km/h 89 % 0 mm
20:50 -6.8 °C -8.3 °C 1023.2 hPa ENE 4.8 km/h 8 km/h 89 % 0 mm
21:05 -6.9 °C -8.3 °C 1023.2 hPa NE 3.2 km/h 11.3 km/h 89 % 0 mm
21:20 -6.9 °C -8.3 °C 1023.2 hPa ENE 3.2 km/h 9.7 km/h 89 % 0 mm
21:35 -6.9 °C -8.3 °C 1023.2 hPa ENE 3.2 km/h 6.4 km/h 89 % 0 mm
21:50 -6.9 °C -8.3 °C 1022.9 hPa NE 4.8 km/h 8 km/h 89 % 0 mm
22:05 -6.9 °C -8.3 °C 1022.9 hPa ENE 1.6 km/h 9.7 km/h 89 % 0 mm
22:20 -6.9 °C -8.3 °C 1022.9 hPa NE 3.2 km/h 12.9 km/h 89 % 0 mm
22:35 -7 °C -8.3 °C 1022.9 hPa NE 1.6 km/h 9.7 km/h 89 % 0 mm
22:50 -7.1 °C -8.3 °C 1022.6 hPa ENE 4.8 km/h 11.3 km/h 89 % 0 mm
23:05 -7.2 °C -8.9 °C 1022.6 hPa ENE 4.8 km/h 14.5 km/h 89 % 0 mm
23:20 -7.3 °C -8.9 °C 1022.6 hPa ENE 1.6 km/h 11.3 km/h 89 % 0 mm
23:35 -7.4 °C -8.9 °C 1022.6 hPa ENE 4.8 km/h 9.7 km/h 89 % 0 mm
23:50 -7.5 °C -8.9 °C 1021.9 hPa ESE 1.6 km/h 14.5 km/h 89 % 0 mm
Des Moines Weather and Climate
Compliments of Weather Underground - 3 mb

Script developed by  Jim McMurry - jmcmurry@mwt.net Adapted for the template by  Wim van der Kuil - Leuven-Template.eu

You find our weather info also at:

Weather Underground

Equipment we use:

Weather-station
Davis VP2 Plus

Weather-program
Davis Weatherlink.Com

Weather-server
iMac (Retina 4K, 21.5-inch, Late 2015)

Provider
Hostmonster.com

Davis VP2 Plus

Davis Weatherlink.Com

iMac (Retina 4K, 21.5-inch, Late 2015)

Hostmonster.com